Terminal Aerodrome Forecast
Issued by NWS

Home | Current Version | Previous Version | Graphics & Text | Print | Product List | Glossary On
Versions: 1 2 3 4 5 6 7 8 9 10 11 12 13 14 15 16 17 18
475
FTUS43 KFGF 201139
TAFBJI
TAF
KBJI 201139Z 2012/2112 15011KT P6SM VCTS OVC100CB WS020/19035KT
     FM201600 15009KT P6SM VCSH OVC050
     FM202200 24011KT P6SM BKN035
     FM210000 27011KT P6SM BKN035
     FM210700 25006KT P6SM SCT080=

USA.gov is the U.S. government's official web portal to all federal, state and local government web resources and services.